Time;durP1;ratioP1;P1;durP2;ratioP2;P2;SDS_P1;SDS_P2;PMS_P1;PMS_P2;Temp;Humidity;BMP_temperature;BMP_pressure;BME280_temperature;BME280_humidity;BME280_pressure;Samples;Min_cycle;Max_cycle;Signal;HPM_P1;HPM_P2
2021/03/25 00:01:57;;;;;;;2.53;0.87;;;25.10;96.20;;;;;;5072972;28;20206;-69
2021/03/25 00:04:26;;;;;;;2.07;0.77;;;25.20;96.00;;;;;;5073423;28;20183;-69
2021/03/25 00:06:56;;;;;;;2.20;0.80;;;25.40;95.40;;;;;;5073606;28;20183;-69
2021/03/25 00:09:28;;;;;;;1.47;0.60;;;25.50;95.30;;;;;;5073520;28;20188;-70
2021/03/25 00:11:56;;;;;;;3.87;0.60;;;25.50;94.70;;;;;;5069190;28;20217;-70
2021/03/25 00:14:24;;;;;;;2.20;0.93;;;25.50;94.20;;;;;;5073647;28;20316;-71
2021/03/25 00:16:52;;;;;;;0.60;0.60;;;25.70;94.60;;;;;;5072299;28;20598;-69
2021/03/25 00:19:20;;;;;;;3.40;0.60;;;25.70;94.00;;;;;;5072006;28;20597;-69
2021/03/25 00:21:48;;;;;;;3.40;1.40;;;25.80;93.30;;;;;;5072568;28;20534;-68
2021/03/25 00:24:17;;;;;;;1.57;0.90;;;25.70;93.20;;;;;;5073038;28;20187;-71
2021/03/25 00:26:45;;;;;;;2.57;0.80;;;25.70;93.70;;;;;;5074781;28;20652;-70
2021/03/25 00:29:16;;;;;;;2.43;0.50;;;25.70;93.60;;;;;;4996901;28;2222540;-70
2021/03/25 00:31:46;;;;;;;6.20;1.00;;;25.90;92.90;;;;;;5060366;28;20194;-70
2021/03/25 00:34:13;;;;;;;3.47;1.10;;;26.00;93.00;;;;;;5074574;28;20795;-69
2021/03/25 00:36:41;;;;;;;5.43;0.60;;;26.20;92.40;;;;;;5074255;28;20218;-72
2021/03/25 00:39:11;;;;;;;1.13;0.57;;;26.30;92.70;;;;;;5074082;28;20187;-70
2021/03/25 00:41:39;;;;;;;1.17;0.70;;;26.50;91.60;;;;;;5075232;28;20244;-70
2021/03/25 00:44:12;;;;;;;3.03;0.80;;;26.40;91.50;;;;;;5066831;28;20644;-69
2021/03/25 00:46:40;;;;;;;0.63;0.57;;;26.30;91.70;;;;;;5074129;28;20183;-68
2021/03/25 00:49:09;;;;;;;3.70;0.90;;;26.40;91.60;;;;;;5074071;28;20176;-69
2021/03/25 00:51:37;;;;;;;3.33;0.70;;;26.60;91.30;;;;;;5075298;28;20237;-68
2021/03/25 00:54:05;;;;;;;2.13;0.80;;;26.80;91.20;;;;;;5073824;28;20483;-70
2021/03/25 00:56:33;;;;;;;3.47;0.83;;;27.00;90.70;;;;;;5071592;28;20191;-69
2021/03/25 00:59:00;;;;;;;3.23;0.90;;;26.90;90.60;;;;;;5072373;28;20217;-69
2021/03/25 01:01:28;;;;;;;7.83;1.17;;;26.90;90.60;;;;;;5068916;28;20258;-69
2021/03/25 01:03:55;;;;;;;1.13;0.60;;;27.00;91.20;;;;;;5065334;28;20269;-70
2021/03/25 01:06:22;;;;;;;6.53;0.73;;;27.10;89.70;;;;;;5061320;28;20229;-69
2021/03/25 01:08:50;;;;;;;0.83;0.63;;;27.10;89.10;;;;;;5066703;28;20227;-69
2021/03/25 01:11:24;;;;;;;2.00;0.80;;;27.20;89.40;;;;;;5064923;28;20267;-67
2021/03/25 01:13:55;;;;;;;1.40;0.70;;;27.40;89.70;;;;;;5070359;28;20187;-68
2021/03/25 01:16:34;;;;;;;3.47;0.93;;;27.60;87.70;;;;;;5070537;28;20175;-67
2021/03/25 01:19:04;;;;;;;7.10;0.77;;;27.40;88.20;;;;;;5070174;28;20716;-67
2021/03/25 01:21:32;;;;;;;1.90;0.73;;;27.40;87.60;;;;;;5066530;28;20516;-69
2021/03/25 01:24:00;;;;;;;7.60;1.20;;;27.60;86.30;;;;;;5071345;28;20267;-70
2021/03/25 01:26:27;;;;;;;3.70;0.70;;;27.60;86.30;;;;;;5071278;28;20580;-69
2021/03/25 01:28:54;;;;;;;1.87;0.70;;;27.80;85.60;;;;;;5070092;28;20276;-70
2021/03/25 01:31:22;;;;;;;1.40;0.67;;;27.70;85.40;;;;;;5066666;28;20238;-68
2021/03/25 01:33:50;;;;;;;4.80;0.97;;;27.70;84.50;;;;;;5071818;28;20203;-68
2021/03/25 01:36:17;;;;;;;2.93;0.90;;;27.80;85.00;;;;;;5071134;28;20272;-70
2021/03/25 01:38:45;;;;;;;2.10;0.90;;;27.80;85.20;;;;;;5069723;28;20245;-69
2021/03/25 01:41:12;;;;;;;1.60;0.80;;;28.10;83.90;;;;;;5067176;28;20234;-70
2021/03/25 01:43:41;;;;;;;1.10;0.70;;;28.30;83.60;;;;;;5069101;28;20187;-69
2021/03/25 01:46:24;;;;;;;1.63;0.80;;;28.30;83.50;;;;;;5070152;28;20187;-68
2021/03/25 01:49:05;;;;;;;2.53;0.77;;;28.60;83.40;;;;;;5067965;28;20181;-70
2021/03/25 01:52:07;;;;;;;1.47;0.70;;;28.80;81.90;;;;;;5064830;28;20544;-70
2021/03/25 01:54:58;;;;;;;2.10;0.80;;;29.00;81.80;;;;;;5066421;28;20209;-68
2021/03/25 01:57:53;;;;;;;1.97;0.70;;;29.30;81.10;;;;;;5067245;28;20221;-69
2021/03/25 02:00:51;;;;;;;1.90;0.80;;;29.20;81.20;;;;;;5067585;28;20191;-68
2021/03/25 02:03:58;;;;;;;0.70;0.60;;;29.00;79.30;;;;;;5071495;28;20236;-69
2021/03/25 02:06:37;;;;;;;1.17;0.77;;;28.80;79.80;;;;;;5067539;28;20514;-70
2021/03/25 02:09:58;;;;;;;1.17;0.70;;;29.00;79.00;;;;;;5069993;28;20182;-69
2021/03/25 02:12:32;;;;;;;2.47;0.60;;;29.00;79.50;;;;;;5006822;28;20276;-72
2021/03/25 02:15:07;;;;;;;1.03;0.40;;;28.60;79.80;;;;;;5008850;28;20340;-71
2021/03/25 02:17:38;;;;;;;1.10;0.60;;;28.20;81.40;;;;;;5050476;28;20676;-70
2021/03/25 02:20:14;;;;;;;3.40;0.73;;;28.10;81.30;;;;;;5067376;28;20692;-71
2021/03/25 02:23:08;;;;;;;2.40;0.90;;;28.20;80.50;;;;;;5066477;28;20210;-69
2021/03/25 02:25:42;;;;;;;3.60;0.90;;;28.60;80.50;;;;;;5070634;28;20186;-69
2021/03/25 02:28:30;;;;;;;2.37;0.80;;;28.90;81.00;;;;;;5064865;28;20226;-70
2021/03/25 02:31:18;;;;;;;2.13;0.90;;;29.20;79.50;;;;;;5065613;28;20187;-68
2021/03/25 02:33:52;;;;;;;2.10;0.70;;;28.80;80.10;;;;;;5063678;28;20184;-70
2021/03/25 02:36:28;;;;;;;2.20;0.80;;;28.40;81.50;;;;;;5069565;28;20597;-69
2021/03/25 02:39:00;;;;;;;0.90;0.50;;;27.90;82.40;;;;;;5067712;28;20218;-71
2021/03/25 02:41:52;;;;;;;1.07;0.50;;;27.70;82.10;;;;;;5070209;28;20209;-70
2021/03/25 02:44:51;;;;;;;0.60;0.60;;;27.60;82.60;;;;;;5065443;28;20217;-69
2021/03/25 02:47:20;;;;;;;1.00;0.60;;;27.70;82.90;;;;;;5068884;28;20266;-70
2021/03/25 02:49:56;;;;;;;2.20;0.70;;;28.00;83.30;;;;;;5066076;28;20194;-70
2021/03/25 02:52:35;;;;;;;1.30;0.60;;;28.80;83.40;;;;;;5070164;28;20728;-71
2021/03/25 02:55:06;;;;;;;5.27;0.80;;;29.50;79.60;;;;;;5067082;28;20179;-68
2021/03/25 02:57:54;;;;;;;1.90;0.67;;;30.20;77.90;;;;;;5061247;28;20609;-69
2021/03/25 03:00:31;;;;;;;0.63;0.50;;;30.20;76.10;;;;;;5070544;28;20194;-72
2021/03/25 03:03:11;;;;;;;2.73;0.60;;;29.60;77.30;;;;;;5071517;28;20183;-71
2021/03/25 03:05:41;;;;;;;1.37;0.90;;;29.70;77.00;;;;;;5059764;28;20613;-69
2021/03/25 03:08:24;;;;;;;1.13;0.60;;;29.40;78.30;;;;;;5071637;28;20187;-70
2021/03/25 03:11:04;;;;;;;0.68;0.47;;;29.90;77.20;;;;;;5061830;28;20587;-73
2021/03/25 03:13:36;;;;;;;2.38;0.75;;;30.40;75.80;;;;;;5071209;28;20637;-71
2021/03/25 03:16:12;;;;;;;1.90;0.50;;;30.20;75.50;;;;;;5071506;28;20183;-70
2021/03/25 03:18:48;;;;;;;0.80;0.53;;;29.60;75.90;;;;;;5070083;28;20207;-71
2021/03/25 03:21:24;;;;;;;1.30;0.57;;;29.60;77.10;;;;;;5072570;28;20708;-69
2021/03/25 03:23:52;;;;;;;1.57;0.70;;;30.10;75.40;;;;;;5073732;28;20277;-70
2021/03/25 03:26:26;;;;;;;1.23;0.60;;;30.90;74.30;;;;;;5074630;28;20195;-71
2021/03/25 03:29:03;;;;;;;1.25;0.57;;;31.20;73.70;;;;;;5071461;28;20704;-69
2021/03/25 03:31:45;;;;;;;0.82;0.50;;;30.70;75.00;;;;;;5075312;28;20182;-72
2021/03/25 03:34:19;;;;;;;5.35;1.30;;;29.90;75.40;;;;;;5074012;28;20570;-72
2021/03/25 03:36:51;;;;;;;5.57;1.20;;;28.80;79.90;;;;;;5074946;28;20656;-71
2021/03/25 03:39:30;;;;;;;6.50;2.07;;;28.20;83.20;;;;;;5075147;28;20440;-68
2021/03/25 03:42:07;;;;;;;7.37;1.80;;;27.40;84.50;;;;;;5074585;28;20573;-70
2021/03/25 03:44:40;;;;;;;4.50;1.43;;;27.00;87.70;;;;;;5072465;28;20576;-71
2021/03/25 03:47:09;;;;;;;1.40;0.80;;;26.80;88.10;;;;;;5075194;28;20237;-68
2021/03/25 03:49:41;;;;;;;1.30;0.63;;;26.60;88.70;;;;;;5072789;28;20513;-68
2021/03/25 03:52:14;;;;;;;2.10;0.50;;;26.40;90.00;;;;;;5073337;28;20225;-68
2021/03/25 03:54:43;;;;;;;6.77;1.00;;;26.20;90.70;;;;;;5074266;28;20190;-68
2021/03/25 03:57:48;;;;;;;3.53;0.60;;;26.00;92.30;;;;;;5074794;28;20211;-68
2021/03/25 04:00:25;;;;;;;11.47;1.77;;;25.60;96.30;;;;;;5074161;28;20190;-70
2021/03/25 04:03:22;;;;;;;13.30;2.00;;;25.10;99.90;;;;;;5074061;28;20232;-67
2021/03/25 04:06:01;;;;;;;8.90;1.70;;;24.70;99.90;;;;;;5063651;28;20489;-70
2021/03/25 04:08:45;;;;;;;11.07;3.90;;;24.30;99.90;;;;;;5073452;28;20765;-68
2021/03/25 04:11:24;;;;;;;13.00;3.30;;;24.00;99.90;;;;;;5071525;28;20194;-68
2021/03/25 04:14:14;;;;;;;9.10;2.47;;;23.70;99.90;;;;;;5073490;28;20270;-68
2021/03/25 04:16:44;;;;;;;5.90;3.50;;;23.50;99.90;;;;;;5071435;28;20225;-69
2021/03/25 04:19:27;;;;;;;8.50;5.27;;;23.40;99.90;;;;;;5073572;28;20538;-69
2021/03/25 04:22:08;;;;;;;6.93;4.33;;;23.50;99.90;;;;;;5073333;28;20178;-69
2021/03/25 04:24:51;;;;;;;5.40;2.87;;;23.50;99.90;;;;;;5065635;28;20811;-68
2021/03/25 04:27:23;;;;;;;5.50;3.13;;;23.80;99.90;;;;;;5073475;28;20187;-70
2021/03/25 04:30:03;;;;;;;6.20;2.67;;;23.60;99.90;;;;;;5074089;28;20213;-70
2021/03/25 04:32:31;;;;;;;7.03;2.83;;;23.40;99.90;;;;;;5072629;28;20191;-69
2021/03/25 04:34:59;;;;;;;5.73;4.43;;;23.30;99.90;;;;;;5073516;28;20258;-69
2021/03/25 04:37:30;;;;;;;12.03;5.77;;;23.30;99.90;;;;;;5073711;28;20219;-70
2021/03/25 04:40:01;;;;;;;11.07;6.27;;;23.40;99.90;;;;;;5073414;28;20216;-69
2021/03/25 04:42:28;;;;;;;4.40;1.83;;;23.40;99.90;;;;;;5066157;28;20192;-69
2021/03/25 04:45:16;;;;;;;4.83;2.30;;;23.40;99.90;;;;;;5064424;28;20194;-69
2021/03/25 04:47:49;;;;;;;7.83;2.00;;;23.60;99.90;;;;;;5064569;28;20182;-69
2021/03/25 04:50:26;;;;;;;10.50;2.67;;;23.80;99.90;;;;;;5072415;28;20186;-70
2021/03/25 04:53:22;;;;;;;13.60;2.40;;;24.70;99.90;;;;;;5061454;28;20552;-70
2021/03/25 04:55:50;;;;;;;13.57;2.77;;;24.90;99.90;;;;;;5065744;28;20211;-68
2021/03/25 04:58:32;;;;;;;12.40;2.27;;;25.20;99.90;;;;;;5073339;28;20646;-68
2021/03/25 05:01:07;;;;;;;10.93;2.53;;;25.70;99.90;;;;;;5072652;28;20202;-69
2021/03/25 05:03:36;;;;;;;10.03;2.10;;;26.40;99.90;;;;;;5070120;28;20241;-69
2021/03/25 05:06:03;;;;;;;10.07;2.30;;;26.40;99.90;;;;;;5063503;28;20194;-68
2021/03/25 05:08:33;;;;;;;7.97;1.93;;;27.00;99.90;;;;;;5063426;28;20703;-70
2021/03/25 05:11:00;;;;;;;8.30;1.80;;;27.30;99.90;;;;;;5070605;28;20185;-69
2021/03/25 05:13:29;;;;;;;4.90;1.20;;;27.80;99.90;;;;;;5066808;28;20179;-70
2021/03/25 05:16:16;;;;;;;6.90;1.37;;;27.60;99.90;;;;;;5072297;28;20171;-70
2021/03/25 05:18:55;;;;;;;5.73;1.83;;;27.90;99.90;;;;;;5070512;28;20302;-69
2021/03/25 05:21:35;;;;;;;4.80;1.73;;;27.70;99.90;;;;;;5071430;28;20202;-70
2021/03/25 05:24:36;;;;;;;2.93;1.50;;;27.70;99.90;;;;;;5069920;28;20541;-69
2021/03/25 05:27:17;;;;;;;3.47;1.20;;;27.90;99.90;;;;;;5039788;28;20673;-69
2021/03/25 05:29:46;;;;;;;4.33;1.23;;;27.30;99.90;;;;;;5062586;28;20185;-68
2021/03/25 05:32:18;;;;;;;5.57;1.37;;;27.60;99.90;;;;;;5071345;28;20259;-69
2021/03/25 05:34:47;;;;;;;7.20;1.53;;;27.60;99.90;;;;;;5087396;28;20206;-69
2021/03/25 05:37:14;;;;;;;5.63;1.77;;;27.80;99.90;;;;;;5071101;28;20264;-67
2021/03/25 05:39:42;;;;;;;3.83;1.57;;;28.80;99.90;;;;;;5071292;28;20214;-71
2021/03/25 05:42:49;;;;;;;3.25;1.20;;;29.30;98.10;;;;;;5070622;28;20539;-68
2021/03/25 05:45:30;;;;;;;4.05;1.08;;;29.60;97.40;;;;;;5070681;28;20278;-68
2021/03/25 05:48:24;;;;;;;6.85;1.33;;;29.00;96.90;;;;;;5070050;28;20178;-70
2021/03/25 05:51:11;;;;;;;3.42;1.45;;;29.20;98.00;;;;;;5070113;28;20175;-70
2021/03/25 05:53:59;;;;;;;2.92;1.17;;;29.30;98.00;;;;;;5070967;28;20187;-68
2021/03/25 05:56:48;;;;;;;1.75;1.02;;;29.20;97.80;;;;;;5071998;28;20183;-70
2021/03/25 05:59:21;;;;;;;5.95;1.50;;;28.50;98.30;;;;;;5074923;28;20191;-70
2021/03/25 06:02:12;;;;;;;3.77;1.00;;;27.60;98.60;;;;;;5072108;28;20182;-68
2021/03/25 06:04:40;;;;;;;4.97;0.90;;;27.00;99.30;;;;;;5071598;28;20186;-68
2021/03/25 06:07:10;;;;;;;2.93;0.80;;;26.40;99.90;;;;;;5071658;28;20273;-70
2021/03/25 06:09:55;;;;;;;2.03;1.07;;;26.20;99.90;;;;;;5071900;28;20176;-68
2021/03/25 06:12:50;;;;;;;6.07;1.20;;;26.10;99.90;;;;;;5071569;28;20733;-67
2021/03/25 06:15:33;;;;;;;2.10;1.07;;;26.10;99.90;;;;;;5072184;28;20175;-70
2021/03/25 06:18:33;;;;;;;3.33;1.03;;;25.70;99.90;;;;;;5061957;28;20716;-69
2021/03/25 06:21:37;;;;;;;3.33;1.23;;;25.30;99.90;;;;;;5068942;28;20217;-70
2021/03/25 06:24:23;;;;;;;4.90;1.30;;;25.00;99.90;;;;;;5069863;28;20220;-69
2021/03/25 06:27:08;;;;;;;5.43;1.80;;;24.90;99.90;;;;;;5061110;28;20206;-67
2021/03/25 06:29:44;;;;;;;3.07;1.40;;;24.90;99.90;;;;;;5071766;28;20190;-71
2021/03/25 06:32:20;;;;;;;6.83;1.80;;;24.90;99.90;;;;;;5071752;28;20210;-70
2021/03/25 06:35:04;;;;;;;6.23;1.33;;;24.90;99.90;;;;;;5065349;28;20749;-68
2021/03/25 06:37:44;;;;;;;7.33;2.30;;;25.10;99.90;;;;;;5065756;28;20292;-70
2021/03/25 06:40:26;;;;;;;5.63;1.60;;;25.10;99.90;;;;;;5072103;28;20183;-70
2021/03/25 06:43:06;;;;;;;4.70;1.73;;;25.30;99.90;;;;;;5076534;28;20183;-69
2021/03/25 06:45:49;;;;;;;5.30;1.40;;;26.20;99.90;;;;;;5070969;28;20208;-69
2021/03/25 06:48:56;;;;;;;7.00;1.50;;;25.80;99.90;;;;;;5070163;28;20653;-70
2021/03/25 06:51:27;;;;;;;8.20;1.60;;;25.90;99.90;;;;;;4998281;28;20207;-67
2021/03/25 06:54:14;;;;;;;8.13;1.80;;;25.70;99.90;;;;;;5060077;28;20589;-68
2021/03/25 06:56:50;;;;;;;3.07;1.70;;;25.80;99.90;;;;;;5058375;28;20525;-70
2021/03/25 06:59:38;;;;;;;3.90;1.77;;;26.90;99.90;;;;;;5074580;28;20239;-68
2021/03/25 07:02:20;;;;;;;6.40;1.37;;;27.30;99.90;;;;;;5075168;28;20695;-71
2021/03/25 07:04:50;;;;;;;5.83;1.80;;;27.90;99.90;;;;;;5074599;28;20273;-70
2021/03/25 07:07:29;;;;;;;2.70;1.50;;;27.90;99.90;;;;;;5075264;28;20534;-69
2021/03/25 07:09:58;;;;;;;10.53;5.83;;;27.00;99.90;;;;;;5075743;28;20305;-69
2021/03/25 07:12:37;;;;;;;7.47;2.80;;;27.30;99.90;;;;;;5075156;28;20786;-67
2021/03/25 07:15:07;;;;;;;6.57;2.50;;;27.60;99.90;;;;;;5073700;28;20592;-69
2021/03/25 07:17:44;;;;;;;4.47;1.80;;;27.30;99.90;;;;;;5074330;28;20252;-68
2021/03/25 07:20:26;;;;;;;5.17;1.20;;;26.90;99.90;;;;;;5072649;28;20183;-70
2021/03/25 07:23:04;;;;;;;6.23;1.40;;;26.80;99.90;;;;;;5074927;28;20175;-69
2021/03/25 07:25:34;;;;;;;4.97;1.57;;;27.50;99.90;;;;;;5071852;28;20214;-70
2021/03/25 07:28:03;;;;;;;6.73;1.67;;;27.60;99.90;;;;;;5074938;28;20234;-68
2021/03/25 07:30:55;;;;;;;4.20;1.00;;;27.40;99.90;;;;;;5075371;28;20171;-69
2021/03/25 07:33:40;;;;;;;1.80;0.70;;;27.00;94.00;;;;;;5063851;28;20194;-70
2021/03/25 07:36:11;;;;;;;1.43;0.50;;;26.40;90.50;;;;;;5058617;28;20271;-70
2021/03/25 07:38:43;;;;;;;1.20;0.50;;;26.00;85.70;;;;;;5059327;28;20237;-71
2021/03/25 07:41:26;;;;;;;1.43;0.60;;;25.80;85.50;;;;;;5058482;28;20175;-67
2021/03/25 07:43:59;;;;;;;0.30;0.30;;;25.60;84.30;;;;;;5074996;28;20183;-67
2021/03/25 07:46:37;;;;;;;2.07;0.60;;;25.50;84.60;;;;;;5074499;28;20183;-68
2021/03/25 07:49:13;;;;;;;2.87;0.50;;;25.40;84.70;;;;;;5075070;28;20240;-69
2021/03/25 07:51:48;;;;;;;0.47;0.40;;;25.20;84.50;;;;;;5073367;28;20225;-68
2021/03/25 07:54:24;;;;;;;0.40;0.30;;;25.10;84.90;;;;;;5055133;28;20262;-69
2021/03/25 07:57:12;;;;;;;4.10;0.53;;;25.00;84.10;;;;;;5068161;28;20167;-68
2021/03/25 07:59:56;;;;;;;2.77;0.50;;;25.00;83.60;;;;;;5065506;28;20285;-68
2021/03/25 08:02:36;;;;;;;0.97;0.50;;;24.90;84.10;;;;;;5068243;28;20182;-67
2021/03/25 08:05:31;;;;;;;1.17;0.57;;;24.80;84.40;;;;;;5057635;28;20184;-70
2021/03/25 08:08:06;;;;;;;0.93;0.50;;;24.70;84.00;;;;;;5068158;28;20241;-71
2021/03/25 08:10:40;;;;;;;0.80;0.50;;;24.70;85.20;;;;;;5068542;28;20187;-71
2021/03/25 08:13:25;;;;;;;0.83;0.60;;;24.60;85.10;;;;;;5069294;28;20182;-69
2021/03/25 08:16:11;;;;;;;0.83;0.50;;;24.40;85.70;;;;;;5069723;28;20204;-72
2021/03/25 08:18:38;;;;;;;1.07;0.80;;;24.40;86.20;;;;;;5073312;28;20215;-71
2021/03/25 08:21:14;;;;;;;0.87;0.67;;;24.40;86.30;;;;;;5073181;28;20649;-73
2021/03/25 08:24:16;;;;;;;3.80;1.07;;;24.30;87.00;;;;;;5074173;28;20764;-72
2021/03/25 08:27:11;;;;;;;0.90;0.80;;;24.20;88.30;;;;;;5073874;28;20175;-72
2021/03/25 08:29:57;;;;;;;1.27;1.00;;;24.20;88.90;;;;;;5069075;28;20214;-71
2021/03/25 08:32:34;;;;;;;2.27;0.97;;;24.10;88.90;;;;;;5074706;28;20175;-68
2021/03/25 08:35:24;;;;;;;1.00;0.70;;;24.10;89.20;;;;;;5073335;28;20187;-71
2021/03/25 08:38:18;;;;;;;2.13;0.90;;;24.00;90.10;;;;;;5074649;28;20272;-71
2021/03/25 08:40:57;;;;;;;1.57;0.80;;;23.90;90.40;;;;;;5070887;28;20294;-72
2021/03/25 08:43:38;;;;;;;0.70;0.60;;;23.70;91.40;;;;;;5072803;28;20642;-71
2021/03/25 08:46:14;;;;;;;1.60;1.00;;;23.60;92.00;;;;;;5071264;28;20205;-71
2021/03/25 08:49:05;;;;;;;2.00;0.90;;;23.50;92.60;;;;;;5071479;28;20605;-71
2021/03/25 08:51:38;;;;;;;1.40;1.10;;;23.30;93.10;;;;;;5073665;28;20179;-70
2021/03/25 08:54:21;;;;;;;2.10;1.07;;;23.20;93.60;;;;;;5062882;28;20578;-69
2021/03/25 08:56:55;;;;;;;4.10;1.00;;;23.10;93.90;;;;;;5064423;28;20191;-69
2021/03/25 08:59:30;;;;;;;3.33;1.50;;;23.00;94.10;;;;;;5061659;28;20215;-68
2021/03/25 09:02:24;;;;;;;3.93;1.50;;;22.90;93.60;;;;;;5069115;28;20633;-70
2021/03/25 09:05:01;;;;;;;3.57;1.40;;;23.00;94.10;;;;;;5069575;28;20266;-73
2021/03/25 09:07:29;;;;;;;4.17;1.27;;;23.10;93.40;;;;;;5068031;28;20250;-67
2021/03/25 09:10:09;;;;;;;4.23;1.77;;;23.10;93.40;;;;;;5068990;28;20591;-69
2021/03/25 09:12:37;;;;;;;2.40;1.20;;;23.10;92.80;;;;;;5072788;28;20166;-69
2021/03/25 09:15:07;;;;;;;4.03;1.87;;;23.20;92.40;;;;;;5073217;28;20184;-67
2021/03/25 09:17:47;;;;;;;1.93;1.00;;;23.10;92.50;;;;;;5073057;28;20623;-67
2021/03/25 09:20:25;;;;;;;4.13;1.20;;;23.20;91.50;;;;;;5070913;28;20178;-68
2021/03/25 09:22:58;;;;;;;2.87;1.30;;;23.10;91.80;;;;;;5072734;28;20219;-68
2021/03/25 09:25:28;;;;;;;2.23;1.20;;;23.10;91.90;;;;;;5072285;28;20218;-67
2021/03/25 09:28:19;;;;;;;2.10;0.83;;;23.10;91.60;;;;;;5073020;28;20276;-68
2021/03/25 09:31:06;;;;;;;4.17;0.90;;;23.20;90.90;;;;;;5073131;28;20176;-68
2021/03/25 09:33:51;;;;;;;1.77;1.03;;;23.10;90.70;;;;;;5073194;28;20171;-67
2021/03/25 09:36:18;;;;;;;3.50;0.90;;;23.10;90.40;;;;;;5073158;28;20171;-69
2021/03/25 09:38:50;;;;;;;2.23;0.90;;;23.00;90.80;;;;;;5071638;28;20207;-68
2021/03/25 09:41:28;;;;;;;1.37;0.80;;;23.00;90.80;;;;;;5073227;28;20183;-70
2021/03/25 09:44:25;;;;;;;2.70;1.00;;;22.90;90.70;;;;;;5059396;28;20252;-68
2021/03/25 09:47:10;;;;;;;1.50;0.90;;;22.80;91.00;;;;;;5068631;28;20199;-69
2021/03/25 09:49:46;;;;;;;0.87;0.87;;;22.70;91.10;;;;;;5073187;28;20177;-68
2021/03/25 09:52:29;;;;;;;1.30;1.13;;;22.70;91.60;;;;;;5071737;28;20619;-68
2021/03/25 09:54:59;;;;;;;5.47;1.10;;;22.60;91.40;;;;;;5072718;28;20694;-68
2021/03/25 09:57:33;;;;;;;2.23;1.30;;;22.60;91.50;;;;;;5065308;28;20207;-70
2021/03/25 10:00:07;;;;;;;3.10;1.10;;;22.50;91.80;;;;;;5071663;28;20212;-66
2021/03/25 10:02:49;;;;;;;0.60;0.60;;;22.40;92.00;;;;;;5068678;28;20175;-68
2021/03/25 10:05:40;;;;;;;1.03;0.70;;;22.40;91.50;;;;;;5071905;28;20203;-67
2021/03/25 10:08:11;;;;;;;1.40;0.70;;;22.40;91.80;;;;;;5070962;28;20179;-70
2021/03/25 10:11:00;;;;;;;1.00;0.70;;;22.30;92.20;;;;;;5071596;28;20237;-69
2021/03/25 10:13:35;;;;;;;1.80;0.80;;;22.20;92.20;;;;;;5066304;28;20211;-69
2021/03/25 10:16:04;;;;;;;2.27;0.60;;;22.10;91.90;;;;;;5071968;28;20191;-71
2021/03/25 10:18:32;;;;;;;0.70;0.50;;;22.10;92.30;;;;;;5069770;28;20612;-68
2021/03/25 10:21:08;;;;;;;1.43;0.70;;;22.00;92.10;;;;;;5065324;28;20246;-71
2021/03/25 10:23:38;;;;;;;1.17;0.80;;;22.10;92.10;;;;;;5064213;28;20175;-66
2021/03/25 10:26:05;;;;;;;1.77;0.70;;;22.10;92.10;;;;;;5071339;28;20781;-71
2021/03/25 10:28:38;;;;;;;3.13;0.80;;;22.10;91.90;;;;;;5071063;28;20677;-67
2021/03/25 10:31:07;;;;;;;1.33;0.80;;;22.10;92.00;;;;;;5074882;28;20206;-70
2021/03/25 10:33:37;;;;;;;2.60;0.60;;;22.10;92.20;;;;;;5076025;28;20629;-69
2021/03/25 10:36:08;;;;;;;1.00;0.90;;;22.10;91.90;;;;;;5075058;28;20649;-67
2021/03/25 10:38:49;;;;;;;1.13;0.60;;;22.10;92.00;;;;;;5075991;28;20642;-68
2021/03/25 10:41:26;;;;;;;4.83;0.97;;;22.00;92.00;;;;;;5075880;28;20175;-70
2021/03/25 10:43:53;;;;;;;1.07;0.80;;;22.00;92.10;;;;;;5076364;28;20228;-71
2021/03/25 10:46:31;;;;;;;3.53;1.10;;;22.00;92.20;;;;;;5076073;28;20312;-69
2021/03/25 10:49:09;;;;;;;3.70;1.07;;;21.90;92.40;;;;;;5074142;28;20206;-70
2021/03/25 10:51:42;;;;;;;0.70;0.70;;;21.90;92.60;;;;;;5076508;28;20297;-70
2021/03/25 10:54:31;;;;;;;2.17;0.80;;;21.90;92.60;;;;;;5067092;28;20719;-68
2021/03/25 10:57:15;;;;;;;3.17;0.90;;;21.90;92.60;;;;;;5058298;28;20184;-67
2021/03/25 11:00:10;;;;;;;1.53;0.67;;;21.80;92.50;;;;;;5058369;28;20191;-68
2021/03/25 11:02:43;;;;;;;2.50;0.80;;;21.80;92.70;;;;;;5070668;28;20176;-69
2021/03/25 11:05:31;;;;;;;1.13;0.57;;;21.70;92.50;;;;;;5064091;28;20187;-69
2021/03/25 11:08:03;;;;;;;1.13;0.60;;;21.80;92.70;;;;;;5059314;28;20233;-67
2021/03/25 11:10:39;;;;;;;1.17;0.60;;;21.70;92.60;;;;;;5075278;28;20182;-68
2021/03/25 11:13:12;;;;;;;1.97;0.80;;;21.60;92.60;;;;;;5063404;28;20175;-67
2021/03/25 11:16:14;;;;;;;0.80;0.40;;;21.70;92.50;;;;;;5057474;28;20183;-68
2021/03/25 11:19:06;;;;;;;1.43;0.50;;;21.70;92.80;;;;;;5064279;28;20214;-68
2021/03/25 11:21:40;;;;;;;3.53;0.83;;;21.60;92.70;;;;;;5073062;28;20186;-67
2021/03/25 11:24:13;;;;;;;1.63;0.60;;;21.60;92.80;;;;;;5075060;28;20274;-70
2021/03/25 11:26:41;;;;;;;0.70;0.50;;;21.50;92.80;;;;;;5073885;28;20459;-70
2021/03/25 11:29:16;;;;;;;3.40;0.70;;;21.50;93.10;;;;;;5075802;28;20215;-72
2021/03/25 11:31:44;;;;;;;1.80;0.60;;;21.40;93.10;;;;;;5069558;28;20175;-71
2021/03/25 11:34:25;;;;;;;1.40;0.70;;;21.30;93.20;;;;;;5075306;28;20293;-71
2021/03/25 11:36:53;;;;;;;1.57;0.80;;;21.30;93.20;;;;;;5074897;28;20224;-68
2021/03/25 11:39:22;;;;;;;2.60;0.80;;;21.30;93.40;;;;;;5075319;28;20296;-72
2021/03/25 11:41:56;;;;;;;2.03;0.60;;;21.30;93.40;;;;;;5074319;28;20175;-71
2021/03/25 11:44:43;;;;;;;1.00;0.80;;;21.20;93.70;;;;;;5075021;28;20198;-71
2021/03/25 11:47:33;;;;;;;2.67;1.07;;;21.20;93.90;;;;;;5073322;28;20187;-72
2021/03/25 11:50:05;;;;;;;1.10;0.50;;;21.10;94.30;;;;;;5069089;28;20189;-71
2021/03/25 11:52:47;;;;;;;1.10;0.77;;;21.00;94.30;;;;;;5074969;28;20317;-71
2021/03/25 11:55:21;;;;;;;2.27;0.70;;;21.00;94.40;;;;;;5074757;28;20183;-73
2021/03/25 11:57:49;;;;;;;3.00;0.80;;;20.90;94.60;;;;;;5074893;28;20214;-70
2021/03/25 12:00:20;;;;;;;1.97;0.80;;;20.90;94.80;;;;;;5074557;28;20179;-73
2021/03/25 12:02:49;;;;;;;1.63;0.80;;;20.90;94.90;;;;;;5061524;28;20191;-72
2021/03/25 12:05:39;;;;;;;1.87;0.80;;;20.80;95.10;;;;;;5073151;28;20191;-72
2021/03/25 12:08:15;;;;;;;1.33;0.77;;;20.80;95.50;;;;;;5074460;28;20665;-73
2021/03/25 12:10:43;;;;;;;3.10;0.77;;;20.70;95.50;;;;;;5073414;28;20222;-71
2021/03/25 12:13:12;;;;;;;2.43;1.00;;;20.70;95.70;;;;;;5074312;28;20675;-72
2021/03/25 12:15:40;;;;;;;1.33;0.77;;;20.60;95.80;;;;;;5072721;28;20192;-71
2021/03/25 12:18:20;;;;;;;1.47;0.80;;;20.60;96.20;;;;;;5059626;28;20568;-72
2021/03/25 12:20:48;;;;;;;1.13;0.60;;;20.50;96.20;;;;;;5066600;28;20203;-72
2021/03/25 12:23:29;;;;;;;2.60;0.90;;;20.50;96.20;;;;;;5073979;28;20664;-71
2021/03/25 12:25:59;;;;;;;1.97;0.80;;;20.50;96.50;;;;;;5069118;28;20534;-72
2021/03/25 12:28:28;;;;;;;1.97;0.73;;;20.50;96.60;;;;;;5074184;28;20253;-73
2021/03/25 12:30:56;;;;;;;1.93;0.87;;;20.40;96.60;;;;;;5073741;28;20574;-71
2021/03/25 12:33:29;;;;;;;5.13;1.00;;;20.40;96.70;;;;;;5068085;28;20170;-72
2021/03/25 12:35:59;;;;;;;3.27;0.90;;;20.50;96.90;;;;;;5073206;28;20168;-71
2021/03/25 12:38:27;;;;;;;2.43;0.97;;;20.40;97.10;;;;;;5074245;28;20241;-72
2021/03/25 12:40:55;;;;;;;2.67;0.90;;;20.40;97.30;;;;;;5073984;28;20183;-72
2021/03/25 12:43:28;;;;;;;1.80;0.73;;;20.40;97.30;;;;;;5073803;28;20175;-71
2021/03/25 12:46:05;;;;;;;1.87;0.70;;;20.30;97.70;;;;;;5072655;28;20182;-72
2021/03/25 12:48:33;;;;;;;4.23;1.00;;;20.20;97.80;;;;;;5072535;28;20859;-71
2021/03/25 12:51:04;;;;;;;2.33;0.97;;;20.30;97.70;;;;;;5072627;28;20277;-70
2021/03/25 12:53:33;;;;;;;1.97;1.33;;;20.30;97.70;;;;;;5071104;28;20229;-70
2021/03/25 12:56:02;;;;;;;3.87;0.90;;;20.20;98.00;;;;;;5063506;28;20285;-72
2021/03/25 12:58:38;;;;;;;1.43;0.90;;;20.20;98.20;;;;;;5073306;28;20556;-72
2021/03/25 13:01:12;;;;;;;4.90;1.00;;;20.10;98.60;;;;;;5068922;28;20564;-72
2021/03/25 13:03:41;;;;;;;4.13;1.00;;;20.00;98.90;;;;;;5073294;28;20187;-72
2021/03/25 13:06:09;;;;;;;7.23;1.10;;;19.90;99.30;;;;;;5065259;28;20188;-72
2021/03/25 13:08:37;;;;;;;2.30;1.27;;;19.80;99.60;;;;;;5072940;28;20187;-70
2021/03/25 13:11:07;;;;;;;6.23;1.20;;;19.80;99.90;;;;;;5072484;28;20191;-73
2021/03/25 13:13:34;;;;;;;3.97;0.80;;;19.70;99.90;;;;;;5072425;28;20777;-72
2021/03/25 13:16:02;;;;;;;3.03;0.97;;;19.70;99.90;;;;;;5073244;28;20269;-72
2021/03/25 13:18:29;;;;;;;4.23;1.23;;;19.60;99.90;;;;;;5073606;28;20225;-71
2021/03/25 13:20:57;;;;;;;2.03;1.10;;;19.60;99.90;;;;;;5071306;28;20645;-71
2021/03/25 13:23:25;;;;;;;3.57;1.17;;;19.50;99.90;;;;;;5072677;28;20518;-71
2021/03/25 13:25:53;;;;;;;4.10;1.10;;;19.50;99.90;;;;;;5072324;28;20179;-72
2021/03/25 13:28:22;;;;;;;1.70;0.80;;;19.50;99.90;;;;;;5072324;28;20397;-72
2021/03/25 13:30:51;;;;;;;4.90;0.97;;;19.50;99.90;;;;;;5073273;28;20222;-72
2021/03/25 13:33:19;;;;;;;2.23;0.60;;;19.50;99.90;;;;;;5071761;28;20538;-71
2021/03/25 13:35:49;;;;;;;1.27;0.73;;;19.50;99.90;;;;;;5071959;28;20206;-72